sensor_id;sensor_type;location;lat;lon;timestamp;temperature;humidity
21417;DHT22;10869;52.238;10.716;2023-07-22T14:22:43;22.40;99.00
21417;DHT22;10869;52.238;10.716;2023-07-22T14:25:09;22.50;97.70
21417;DHT22;10869;52.238;10.716;2023-07-22T14:27:37;22.50;97.90
21417;DHT22;10869;52.238;10.716;2023-07-22T14:30:03;22.30;98.00
21417;DHT22;10869;52.238;10.716;2023-07-22T14:32:31;22.20;98.00
21417;DHT22;10869;52.238;10.716;2023-07-22T14:34:56;22.00;98.00
21417;DHT22;10869;52.238;10.716;2023-07-22T14:37:23;21.80;98.50
21417;DHT22;10869;52.238;10.716;2023-07-22T14:39:49;21.60;98.30
21417;DHT22;10869;52.238;10.716;2023-07-22T14:42:15;21.30;97.90
21417;DHT22;10869;52.238;10.716;2023-07-22T14:44:40;21.20;98.50
21417;DHT22;10869;52.238;10.716;2023-07-22T14:47:06;21.10;98.40
21417;DHT22;10869;52.238;10.716;2023-07-22T14:49:32;21.10;98.70
21417;DHT22;10869;52.238;10.716;2023-07-22T14:51:58;21.30;98.50
21417;DHT22;10869;52.238;10.716;2023-07-22T14:54:27;21.30;97.70
21417;DHT22;10869;52.238;10.716;2023-07-22T14:56:55;21.30;98.00
21417;DHT22;10869;52.238;10.716;2023-07-22T14:59:21;21.20;98.20
21417;DHT22;10869;52.238;10.716;2023-07-22T15:01:47;21.30;98.60
21417;DHT22;10869;52.238;10.716;2023-07-22T15:04:13;21.60;97.20
21417;DHT22;10869;52.238;10.716;2023-07-22T15:06:38;21.80;96.30
21417;DHT22;10869;52.238;10.716;2023-07-22T15:09:04;22.00;95.90
21417;DHT22;10869;52.238;10.716;2023-07-22T15:11:35;21.90;95.50
21417;DHT22;10869;52.238;10.716;2023-07-22T15:14:01;21.70;96.10
21417;DHT22;10869;52.238;10.716;2023-07-22T15:16:27;21.60;96.50
21417;DHT22;10869;52.238;10.716;2023-07-22T15:22:15;21.50;97.20
21417;DHT22;10869;52.238;10.716;2023-07-22T15:24:41;21.40;97.00
21417;DHT22;10869;52.238;10.716;2023-07-22T15:27:07;21.20;97.00
21417;DHT22;10869;52.238;10.716;2023-07-22T15:29:33;21.10;97.30
21417;DHT22;10869;52.238;10.716;2023-07-22T15:31:58;21.10;97.10
21417;DHT22;10869;52.238;10.716;2023-07-22T15:34:29;21.10;97.20
21417;DHT22;10869;52.238;10.716;2023-07-22T15:36:54;21.10;97.50
21417;DHT22;10869;52.238;10.716;2023-07-22T15:39:20;21.10;97.40
21417;DHT22;10869;52.238;10.716;2023-07-22T15:41:46;21.20;97.50
21417;DHT22;10869;52.238;10.716;2023-07-22T15:44:11;21.20;97.50
21417;DHT22;10869;52.238;10.716;2023-07-22T15:49:59;22.00;96.50
21417;DHT22;10869;52.238;10.716;2023-07-22T15:55:47;21.90;96.60
21417;DHT22;10869;52.238;10.716;2023-07-22T15:58:17;21.70;96.40
21417;DHT22;10869;52.238;10.716;2023-07-22T16:04:07;21.60;96.50
21417;DHT22;10869;52.238;10.716;2023-07-22T16:06:32;21.60;96.80
21417;DHT22;10869;52.238;10.716;2023-07-22T16:08:58;21.60;97.00
21417;DHT22;10869;52.238;10.716;2023-07-22T16:11:24;21.70;96.10
21417;DHT22;10869;52.238;10.716;2023-07-22T16:13:50;21.70;96.50
21417;DHT22;10869;52.238;10.716;2023-07-22T16:16:15;21.90;96.30
21417;DHT22;10869;52.238;10.716;2023-07-22T16:18:41;22.10;96.10
21417;DHT22;10869;52.238;10.716;2023-07-22T16:21:07;22.10;95.70
21417;DHT22;10869;52.238;10.716;2023-07-22T16:23:34;22.10;96.10
21417;DHT22;10869;52.238;10.716;2023-07-22T16:26:00;22.10;96.10
21417;DHT22;10869;52.238;10.716;2023-07-22T16:31:48;21.90;95.90
21417;DHT22;10869;52.238;10.716;2023-07-22T16:34:14;21.80;96.10
21417;DHT22;10869;52.238;10.716;2023-07-22T16:36:39;21.70;96.00
21417;DHT22;10869;52.238;10.716;2023-07-22T16:39:05;21.60;95.50
21417;DHT22;10869;52.238;10.716;2023-07-22T16:41:31;21.60;96.00
21417;DHT22;10869;52.238;10.716;2023-07-22T16:43:57;21.70;95.50
21417;DHT22;10869;52.238;10.716;2023-07-22T16:46:22;21.60;94.60
21417;DHT22;10869;52.238;10.716;2023-07-22T16:48:48;21.50;94.80
21417;DHT22;10869;52.238;10.716;2023-07-22T16:51:14;21.60;94.80
21417;DHT22;10869;52.238;10.716;2023-07-22T16:53:41;21.60;94.20
21417;DHT22;10869;52.238;10.716;2023-07-22T16:56:06;21.50;94.50
21417;DHT22;10869;52.238;10.716;2023-07-22T16:58:33;21.50;94.80
21417;DHT22;10869;52.238;10.716;2023-07-22T17:01:00;21.40;94.40
21417;DHT22;10869;52.238;10.716;2023-07-22T17:03:27;21.30;94.40
21417;DHT22;10869;52.238;10.716;2023-07-22T17:05:54;21.30;94.70
21417;DHT22;10869;52.238;10.716;2023-07-22T17:08:19;21.30;95.10
21417;DHT22;10869;52.238;10.716;2023-07-22T17:14:09;21.20;95.10
21417;DHT22;10869;52.238;10.716;2023-07-22T17:16:37;21.00;95.00
21417;DHT22;10869;52.238;10.716;2023-07-22T17:19:13;21.00;95.10
21417;DHT22;10869;52.238;10.716;2023-07-22T17:21:39;21.00;95.70
21417;DHT22;10869;52.238;10.716;2023-07-22T17:35:38;20.70;96.40
21417;DHT22;10869;52.238;10.716;2023-07-22T17:38:04;20.60;96.70
21417;DHT22;10869;52.238;10.716;2023-07-22T17:40:30;20.60;96.90
21417;DHT22;10869;52.238;10.716;2023-07-22T17:42:56;20.50;97.60
21417;DHT22;10869;52.238;10.716;2023-07-22T17:45:25;20.50;97.40
21417;DHT22;10869;52.238;10.716;2023-07-22T17:47:51;20.40;97.80
21417;DHT22;10869;52.238;10.716;2023-07-22T17:50:18;20.40;98.00
21417;DHT22;10869;52.238;10.716;2023-07-22T17:52:44;20.40;98.10
21417;DHT22;10869;52.238;10.716;2023-07-22T17:55:10;20.30;98.20
21417;DHT22;10869;52.238;10.716;2023-07-22T17:57:35;20.30;98.60
21417;DHT22;10869;52.238;10.716;2023-07-22T18:03:23;20.20;98.70
21417;DHT22;10869;52.238;10.716;2023-07-22T18:05:49;20.20;99.10
21417;DHT22;10869;52.238;10.716;2023-07-22T18:08:15;20.10;99.10
21417;DHT22;10869;52.238;10.716;2023-07-22T18:10:51;20.10;99.30
21417;DHT22;10869;52.238;10.716;2023-07-22T18:16:21;19.90;99.90
21417;DHT22;10869;52.238;10.716;2023-07-22T18:18:58;19.80;99.90
21417;DHT22;10869;52.238;10.716;2023-07-22T18:31:18;19.40;99.90
21417;DHT22;10869;52.238;10.716;2023-07-22T18:33:50;19.40;99.90
21417;DHT22;10869;52.238;10.716;2023-07-22T18:36:16;19.30;99.90
21417;DHT22;10869;52.238;10.716;2023-07-22T18:38:43;19.30;99.90
21417;DHT22;10869;52.238;10.716;2023-07-22T18:41:12;19.20;99.90
21417;DHT22;10869;52.238;10.716;2023-07-22T18:47:00;19.20;99.90
21417;DHT22;10869;52.238;10.716;2023-07-22T18:49:26;19.10;99.90
21417;DHT22;10869;52.238;10.716;2023-07-22T19:00:26;19.00;99.90
21417;DHT22;10869;52.238;10.716;2023-07-22T19:02:52;19.00;99.90
21417;DHT22;10869;52.238;10.716;2023-07-22T19:08:40;18.90;99.90
21417;DHT22;10869;52.238;10.716;2023-07-22T19:11:08;18.80;99.90
21417;DHT22;10869;52.238;10.716;2023-07-22T19:13:37;18.80;99.90
21417;DHT22;10869;52.238;10.716;2023-07-22T19:19:24;18.70;99.90
21417;DHT22;10869;52.238;10.716;2023-07-22T19:21:53;18.70;99.90
21417;DHT22;10869;52.238;10.716;2023-07-22T19:24:19;18.60;99.90
21417;DHT22;10869;52.238;10.716;2023-07-22T19:26:45;18.60;99.90
21417;DHT22;10869;52.238;10.716;2023-07-22T19:29:11;18.50;99.90
21417;DHT22;10869;52.238;10.716;2023-07-22T19:31:37;18.50;99.90
21417;DHT22;10869;52.238;10.716;2023-07-22T19:34:03;18.50;99.90
21417;DHT22;10869;52.238;10.716;2023-07-22T19:36:28;18.50;99.90
21417;DHT22;10869;52.238;10.716;2023-07-22T19:42:16;18.50;99.90
21417;DHT22;10869;52.238;10.716;2023-07-22T19:48:04;18.40;99.90
21417;DHT22;10869;52.238;10.716;2023-07-22T19:50:30;18.40;99.90
21417;DHT22;10869;52.238;10.716;2023-07-22T19:52:59;18.40;99.90
21417;DHT22;10869;52.238;10.716;2023-07-22T19:55:25;18.40;99.90
21417;DHT22;10869;52.238;10.716;2023-07-22T19:57:51;18.40;99.90
21417;DHT22;10869;52.238;10.716;2023-07-22T20:00:17;18.40;99.90
21417;DHT22;10869;52.238;10.716;2023-07-22T20:02:42;18.40;99.90
21417;DHT22;10869;52.238;10.716;2023-07-22T20:05:08;18.40;99.90
21417;DHT22;10869;52.238;10.716;2023-07-22T20:07:34;18.30;99.90
21417;DHT22;10869;52.238;10.716;2023-07-22T20:10:00;18.30;99.90
21417;DHT22;10869;52.238;10.716;2023-07-22T20:12:26;18.30;99.90
21417;DHT22;10869;52.238;10.716;2023-07-22T20:21:35;18.10;99.90
21417;DHT22;10869;52.238;10.716;2023-07-22T20:24:01;18.10;99.90
21417;DHT22;10869;52.238;10.716;2023-07-22T20:26:30;18.00;99.90
21417;DHT22;10869;52.238;10.716;2023-07-22T20:28:55;17.90;99.90
21417;DHT22;10869;52.238;10.716;2023-07-22T20:31:24;17.90;99.90
21417;DHT22;10869;52.238;10.716;2023-07-22T20:33:50;17.80;99.90
21417;DHT22;10869;52.238;10.716;2023-07-22T20:36:16;17.80;99.90
21417;DHT22;10869;52.238;10.716;2023-07-22T20:38:41;17.70;99.90
21417;DHT22;10869;52.238;10.716;2023-07-22T20:41:07;17.60;99.90
21417;DHT22;10869;52.238;10.716;2023-07-22T20:43:33;17.50;99.90
21417;DHT22;10869;52.238;10.716;2023-07-22T20:46:03;17.50;99.90
21417;DHT22;10869;52.238;10.716;2023-07-22T20:48:30;17.40;99.90
21417;DHT22;10869;52.238;10.716;2023-07-22T20:50:56;17.30;99.90
21417;DHT22;10869;52.238;10.716;2023-07-22T20:53:22;17.20;99.90
21417;DHT22;10869;52.238;10.716;2023-07-22T20:55:57;17.10;99.90
21417;DHT22;10869;52.238;10.716;2023-07-22T20:58:23;17.00;99.90
21417;DHT22;10869;52.238;10.716;2023-07-22T21:00:50;16.90;99.90
21417;DHT22;10869;52.238;10.716;2023-07-22T21:03:16;16.90;99.90
21417;DHT22;10869;52.238;10.716;2023-07-22T21:05:42;16.80;99.90
21417;DHT22;10869;52.238;10.716;2023-07-22T21:08:07;16.80;99.90
21417;DHT22;10869;52.238;10.716;2023-07-22T21:10:33;16.70;99.90
21417;DHT22;10869;52.238;10.716;2023-07-22T21:12:59;16.60;99.90
21417;DHT22;10869;52.238;10.716;2023-07-22T21:15:24;16.70;99.90
21417;DHT22;10869;52.238;10.716;2023-07-22T21:17:50;16.70;99.90
21417;DHT22;10869;52.238;10.716;2023-07-22T21:20:16;16.70;99.90
21417;DHT22;10869;52.238;10.716;2023-07-22T21:22:42;16.60;99.90
21417;DHT22;10869;52.238;10.716;2023-07-22T21:25:07;16.60;99.90
21417;DHT22;10869;52.238;10.716;2023-07-22T21:27:33;16.60;99.90
21417;DHT22;10869;52.238;10.716;2023-07-22T21:29:59;16.50;99.90
21417;DHT22;10869;52.238;10.716;2023-07-22T21:32:25;16.50;99.90
21417;DHT22;10869;52.238;10.716;2023-07-22T21:34:50;16.40;99.90
21417;DHT22;10869;52.238;10.716;2023-07-22T21:37:16;16.40;99.90
21417;DHT22;10869;52.238;10.716;2023-07-22T21:39:42;16.30;99.90
21417;DHT22;10869;52.238;10.716;2023-07-22T21:42:08;16.30;99.90
21417;DHT22;10869;52.238;10.716;2023-07-22T21:44:34;16.30;99.90
21417;DHT22;10869;52.238;10.716;2023-07-22T21:47:00;16.20;99.90
21417;DHT22;10869;52.238;10.716;2023-07-22T21:49:25;16.20;99.90
21417;DHT22;10869;52.238;10.716;2023-07-22T21:51:51;16.20;99.90
21417;DHT22;10869;52.238;10.716;2023-07-22T21:54:17;16.10;99.90
21417;DHT22;10869;52.238;10.716;2023-07-22T21:56:43;16.10;99.90
21417;DHT22;10869;52.238;10.716;2023-07-22T21:59:08;16.10;99.90
21417;DHT22;10869;52.238;10.716;2023-07-22T22:01:36;16.10;99.90
21417;DHT22;10869;52.238;10.716;2023-07-22T22:04:02;16.10;99.90
21417;DHT22;10869;52.238;10.716;2023-07-22T22:06:28;16.10;99.90
21417;DHT22;10869;52.238;10.716;2023-07-22T22:08:53;16.10;99.90
21417;DHT22;10869;52.238;10.716;2023-07-22T22:11:19;16.10;99.90
21417;DHT22;10869;52.238;10.716;2023-07-22T22:13:45;16.10;99.90
21417;DHT22;10869;52.238;10.716;2023-07-22T22:16:10;16.10;99.90
21417;DHT22;10869;52.238;10.716;2023-07-22T22:18:36;16.00;99.90
21417;DHT22;10869;52.238;10.716;2023-07-22T22:21:02;16.00;99.90
21417;DHT22;10869;52.238;10.716;2023-07-22T22:23:28;16.00;99.90
21417;DHT22;10869;52.238;10.716;2023-07-22T22:25:53;16.00;99.90
21417;DHT22;10869;52.238;10.716;2023-07-22T22:28:19;16.00;99.90
21417;DHT22;10869;52.238;10.716;2023-07-22T22:30:45;16.00;99.90
21417;DHT22;10869;52.238;10.716;2023-07-22T22:33:10;15.90;99.90
21417;DHT22;10869;52.238;10.716;2023-07-22T22:35:36;15.90;99.90
21417;DHT22;10869;52.238;10.716;2023-07-22T22:38:02;15.90;99.90
21417;DHT22;10869;52.238;10.716;2023-07-22T22:40:28;15.90;99.90
21417;DHT22;10869;52.238;10.716;2023-07-22T22:42:54;15.90;99.90
21417;DHT22;10869;52.238;10.716;2023-07-22T22:45:20;15.90;99.90
21417;DHT22;10869;52.238;10.716;2023-07-22T22:47:45;15.90;99.90
21417;DHT22;10869;52.238;10.716;2023-07-22T22:50:12;15.90;99.90
21417;DHT22;10869;52.238;10.716;2023-07-22T22:52:38;15.80;99.90
21417;DHT22;10869;52.238;10.716;2023-07-22T22:55:04;15.80;99.90
21417;DHT22;10869;52.238;10.716;2023-07-22T22:57:29;15.80;99.90
21417;DHT22;10869;52.238;10.716;2023-07-22T22:59:55;15.80;99.90
